Terminal Aerodrome Forecast
Issued by NWS

Home | Current Version | Previous Version | Text Only | Print | Product List | Glossary On
Versions: 1 2 3 4 5 6 7 8 9 10 11 12 13 14 15 16 17 18 19 20 21 22 23 24 25 26 27 28
000
FTUS41 KRNK 240520
TAFLWB
TAF
KLWB 240520Z 2406/2506 16010KT P6SM -DZ OVC015 WS012/19045KT
     FM241000 21007KT 6SM BR BKN012 WS012/22030KT
     FM241300 19008KT P6SM BKN007
     FM241500 22011G25KT P6SM SCT030
     FM242200 26007KT P6SM BKN035=

USA.gov is the U.S. government's official web portal to all federal, state and local government web resources and services.